Time;durP1;ratioP1;P1;durP2;ratioP2;P2;SDS_P1;SDS_P2;PMS_P1;PMS_P2;Temp;Humidity;BMP_temperature;BMP_pressure;BME280_temperature;BME280_humidity;BME280_pressure;Samples;Min_cycle;Max_cycle;Signal;HPM_P1;HPM_P2
2023/11/27 00:03:31;;;;;;;12.40;5.57;;;;;;;-1.26;100.00;100075.77;5062818;57;1141007;-74
2023/11/27 00:08:37;;;;;;;11.30;4.97;;;;;;;-1.27;100.00;100083.16;5126947;56;1140877;-74
2023/11/27 00:13:42;;;;;;;7.87;4.45;;;;;;;-1.21;100.00;100076.88;5163141;56;1141008;-83
2023/11/27 00:18:48;;;;;;;11.37;4.97;;;;;;;-1.20;100.00;100074.23;5106734;56;1139052;-75
2023/11/27 00:23:53;;;;;;;7.47;3.90;;;;;;;-1.24;100.00;100066.19;5054934;57;1140932;-77
2023/11/27 00:28:59;;;;;;;9.47;4.43;;;;;;;-1.26;100.00;100078.36;5073175;57;1138769;-79
2023/11/27 00:34:05;;;;;;;9.83;3.93;;;;;;;-1.25;100.00;100073.58;5073117;56;1138468;-77
2023/11/27 00:39:10;;;;;;;14.20;4.43;;;;;;;-1.27;100.00;100064.15;5090240;56;1138828;-74
2023/11/27 00:44:17;;;;;;;9.73;4.13;;;;;;;-1.28;100.00;100071.08;5117140;56;1140782;-75
2023/11/27 00:49:23;;;;;;;7.93;3.70;;;;;;;-1.29;100.00;100073.73;5007102;57;1138951;-73
2023/11/27 00:54:28;;;;;;;6.70;4.53;;;;;;;-1.29;100.00;100060.76;4960597;57;1138794;-74
2023/11/27 00:59:40;;;;;;;8.28;3.55;;;;;;;-1.25;100.00;100070.98;4962782;57;1180584;-77
2023/11/27 01:04:42;;;;;;;9.30;4.70;;;;;;;-1.21;100.00;100067.80;5093305;56;1139004;-74
2023/11/27 01:09:47;;;;;;;9.43;4.10;;;;;;;-1.22;100.00;100056.57;5127223;56;1138883;-73
2023/11/27 01:14:53;;;;;;;8.47;4.37;;;;;;;-1.23;100.00;100068.33;5146887;56;1138833;-75
2023/11/27 01:19:58;;;;;;;8.27;4.00;;;;;;;-1.21;100.00;100063.91;5041300;57;1138806;-78
2023/11/27 01:25:05;;;;;;;11.83;4.83;;;;;;;-1.21;100.00;100056.12;4973188;57;1138964;-74
2023/11/27 01:30:11;;;;;;;10.70;3.87;;;;;;;-1.18;100.00;100054.27;5138925;56;1141020;-79
2023/11/27 01:35:17;;;;;;;12.73;4.17;;;;;;;-1.20;100.00;100052.62;5118549;56;1140895;-76
2023/11/27 01:40:23;;;;;;;9.87;3.90;;;;;;;-1.19;100.00;100055.17;5117219;56;1140722;-79
2023/11/27 01:45:33;;;;;;;12.03;4.60;;;;;;;-1.18;100.00;100050.83;5099194;56;1138636;-70
2023/11/27 01:50:38;;;;;;;9.53;3.23;;;;;;;-1.14;100.00;100049.37;4959614;57;1140885;-76
2023/11/27 01:55:45;;;;;;;9.30;3.55;;;;;;;-1.12;100.00;100055.34;4959217;57;1187686;-75
2023/11/27 02:00:50;;;;;;;9.00;3.22;;;;;;;-1.15;100.00;100048.13;5007463;57;1138725;-76
2023/11/27 02:05:56;;;;;;;14.60;4.37;;;;;;;-1.15;100.00;100051.56;5145868;56;1138614;-73
2023/11/27 02:11:02;;;;;;;7.20;3.97;;;;;;;-1.13;100.00;100054.11;5126208;56;1140736;-76
2023/11/27 02:16:10;;;;;;;8.73;3.97;;;;;;;-1.09;100.00;100046.16;5126185;56;1138840;-78
2023/11/27 02:21:23;;;;;;;9.40;4.40;;;;;;;-1.06;100.00;100046.47;5144401;56;1138973;-74
2023/11/27 02:26:27;;;;;;;8.10;4.40;;;;;;;-1.11;100.00;100045.37;5041278;57;1140482;-80
2023/11/27 02:31:33;;;;;;;11.53;5.53;;;;;;;-1.15;100.00;100043.78;4958175;57;1206788;-79
2023/11/27 02:36:39;;;;;;;8.27;4.60;;;;;;;-1.18;100.00;100044.34;5061735;57;1140781;-79
2023/11/27 02:41:44;;;;;;;10.38;3.92;;;;;;;-1.23;100.00;100044.98;4959616;58;1138535;-77
2023/11/27 02:46:50;;;;;;;10.23;5.63;;;;;;;-1.26;100.00;100045.94;5042810;56;1141259;-72
2023/11/27 02:51:55;;;;;;;14.17;5.77;;;;;;;-1.25;100.00;100035.11;5075795;56;1140930;-77
2023/11/27 02:57:01;;;;;;;11.78;5.42;;;;;;;-1.24;100.00;100036.35;5052703;57;1140910;-81
2023/11/27 03:02:07;;;;;;;11.43;5.23;;;;;;;-1.21;100.00;100032.77;5056406;57;1140927;-74
2023/11/27 03:07:13;;;;;;;7.90;5.10;;;;;;;-1.27;100.00;100023.94;5075728;57;1140975;-71
2023/11/27 03:12:18;;;;;;;8.27;5.33;;;;;;;-1.29;100.00;100024.44;5141975;56;1138768;-76
2023/11/27 03:17:25;;;;;;;15.17;5.90;;;;;;;-1.36;100.00;100017.77;5140457;56;1246509;-75
2023/11/27 03:22:31;;;;;;;9.20;4.80;;;;;;;-1.35;100.00;100012.98;5138902;56;1141413;-75
2023/11/27 03:27:37;;;;;;;12.23;6.37;;;;;;;-1.34;100.00;100003.01;5057094;55;1187548;-73
2023/11/27 03:32:43;;;;;;;9.85;6.17;;;;;;;-1.36;100.00;100000.47;5055211;56;1243034;-78
2023/11/27 03:37:48;;;;;;;11.00;6.60;;;;;;;-1.38;100.00;100000.16;5075987;56;1239549;-80
2023/11/27 03:42:54;;;;;;;10.23;6.53;;;;;;;-1.42;100.00;100004.16;5056690;55;1237185;-72
2023/11/27 03:48:00;;;;;;;11.13;6.47;;;;;;;-1.43;100.00;99995.98;5053650;57;1254946;-75
2023/11/27 03:53:05;;;;;;;11.40;6.62;;;;;;;-1.45;100.00;100005.55;5120709;56;1238249;-76
2023/11/27 03:58:11;;;;;;;15.17;6.50;;;;;;;-1.45;100.00;100000.81;5052808;56;1246577;-76
2023/11/27 04:03:16;;;;;;;8.27;5.43;;;;;;;-1.47;100.00;100001.32;5026042;56;1247795;-77
2023/11/27 04:08:22;;;;;;;8.83;5.50;;;;;;;-1.43;100.00;100002.91;4991750;57;1255669;-70
2023/11/27 04:13:27;;;;;;;11.07;6.57;;;;;;;-1.42;100.00;99996.38;4972555;56;1225276;-77
2023/11/27 04:18:33;;;;;;;9.43;6.17;;;;;;;-1.46;100.00;99990.05;4972254;56;1249225;-77
2023/11/27 04:23:38;;;;;;;12.33;6.30;;;;;;;-1.49;100.00;99979.78;5013078;56;1255661;-74
2023/11/27 04:28:45;;;;;;;10.15;6.10;;;;;;;-1.55;100.00;99982.17;5075344;57;1138793;-76
2023/11/27 04:33:51;;;;;;;17.17;8.60;;;;;;;-1.52;100.00;99982.48;5052112;57;1138965;-80
2023/11/27 04:38:56;;;;;;;15.78;8.20;;;;;;;-1.59;100.00;99986.22;5055066;57;1172500;-76
2023/11/27 04:44:02;;;;;;;15.33;8.63;;;;;;;-1.70;100.00;99984.03;5074446;57;1138667;-74
2023/11/27 04:49:11;;;;;;;14.50;7.67;;;;;;;-1.67;100.00;99984.34;5055386;57;1138641;-72
2023/11/27 04:54:15;;;;;;;11.43;6.30;;;;;;;-1.67;100.00;99988.23;5055601;57;1138744;-74
2023/11/27 04:59:20;;;;;;;15.67;7.93;;;;;;;-1.67;100.00;99978.70;5075291;56;1138820;-73
2023/11/27 05:04:26;;;;;;;12.33;8.33;;;;;;;-1.75;100.00;99982.04;5056181;56;1138696;-70
2023/11/27 05:09:32;;;;;;;16.40;7.72;;;;;;;-1.73;100.00;99983.28;5055976;56;1138804;-77
2023/11/27 05:14:38;;;;;;;11.13;7.30;;;;;;;-1.78;100.00;99980.84;5075785;56;1138765;-73
2023/11/27 05:19:43;;;;;;;11.35;6.45;;;;;;;-1.79;100.00;99981.30;5076496;56;1138587;-74
2023/11/27 05:24:49;;;;;;;10.90;6.43;;;;;;;-1.81;100.00;99978.36;5055118;56;1178377;-76
2023/11/27 05:29:54;;;;;;;11.88;6.67;;;;;;;-1.87;100.00;99993.70;5055442;56;1138868;-78
2023/11/27 05:35:00;;;;;;;18.53;9.63;;;;;;;-1.86;100.00;99996.69;5074932;56;1138740;-74
2023/11/27 05:40:07;;;;;;;18.33;9.00;;;;;;;-1.84;100.00;100003.96;5053663;56;1255165;-73
2023/11/27 05:45:12;;;;;;;14.70;8.20;;;;;;;-1.81;100.00;99994.75;5055440;56;1140620;-73
2023/11/27 05:50:20;;;;;;;16.47;7.90;;;;;;;-1.86;100.00;99995.39;5075709;56;1138868;-75
2023/11/27 05:55:27;;;;;;;16.70;8.47;;;;;;;-1.89;100.00;99999.38;5050935;56;1138674;-76
2023/11/27 06:00:32;;;;;;;12.57;7.63;;;;;;;-1.91;100.00;100002.92;5040424;57;1138670;-78
2023/11/27 06:05:38;;;;;;;17.53;9.30;;;;;;;-1.93;100.00;99996.48;5042356;56;1140870;-72
2023/11/27 06:10:43;;;;;;;12.77;6.40;;;;;;;-1.95;100.00;99993.10;5062483;56;1138934;-74
2023/11/27 06:15:49;;;;;;;13.40;6.37;;;;;;;-1.98;100.00;99986.72;5042582;56;1138844;-73
2023/11/27 06:20:54;;;;;;;13.22;7.67;;;;;;;-2.01;100.00;99981.67;5042643;56;1138803;-75
2023/11/27 06:26:01;;;;;;;13.50;6.73;;;;;;;-2.07;100.00;99983.17;5056155;57;1138822;-73
2023/11/27 06:31:07;;;;;;;15.48;8.60;;;;;;;-2.08;100.00;99985.81;5122511;56;1138673;-75
2023/11/27 06:36:13;;;;;;;16.05;9.53;;;;;;;-2.09;100.00;99990.59;5117069;56;1138682;-73
2023/11/27 06:41:18;;;;;;;11.87;7.30;;;;;;;-2.01;100.00;99986.01;5104271;56;1138680;-70
2023/11/27 06:46:24;;;;;;;15.43;8.33;;;;;;;-2.01;100.00;99993.78;5040334;56;1138948;-75
2023/11/27 06:51:29;;;;;;;12.43;7.87;;;;;;;-2.08;100.00;99985.36;4977004;57;1138826;-74
2023/11/27 06:56:36;;;;;;;16.60;8.90;;;;;;;-2.07;100.00;99990.09;5145673;56;1138679;-73
2023/11/27 07:01:42;;;;;;;15.53;9.07;;;;;;;-2.09;100.00;99984.11;5043029;56;1138915;-74
2023/11/27 07:06:48;;;;;;;12.80;7.77;;;;;;;-2.04;100.00;99979.63;5040392;57;1138798;-74
2023/11/27 07:11:53;;;;;;;44.98;29.27;;;;;;;-1.99;100.00;99977.73;5061612;56;1138898;-77
2023/11/27 07:16:59;;;;;;;16.10;9.93;;;;;;;-1.96;100.00;99982.34;5127934;56;1141209;-72
2023/11/27 07:22:05;;;;;;;17.97;9.03;;;;;;;-1.90;100.00;99978.70;5044582;57;1139064;-75
2023/11/27 07:27:11;;;;;;;22.13;9.33;;;;;;;-1.85;100.00;99988.02;5059327;57;1139143;-75
2023/11/27 07:32:16;;;;;;;16.67;9.63;;;;;;;-1.82;100.00;99982.69;5044535;57;1138955;-75
2023/11/27 07:37:22;;;;;;;17.83;8.83;;;;;;;-1.87;100.00;99983.33;4998641;57;1139094;-76
2023/11/27 07:42:29;;;;;;;16.70;8.50;;;;;;;-1.87;100.00;99979.44;5084790;56;1139209;-79
2023/11/27 07:47:37;;;;;;;21.07;10.60;;;;;;;-1.86;100.00;99973.81;5067966;56;1139030;-77
2023/11/27 07:52:43;;;;;;;28.05;13.88;;;;;;;-1.87;100.00;99975.55;5070114;56;1141221;-75
2023/11/27 07:57:48;;;;;;;36.23;15.07;;;;;;;-1.85;100.00;99973.76;5093953;56;1141031;-76
2023/11/27 08:02:55;;;;;;;24.60;13.20;;;;;;;-1.80;100.00;99974.42;5071184;56;1141017;-75
2023/11/27 08:08:01;;;;;;;19.47;9.30;;;;;;;-1.75;100.00;99970.83;5076829;56;1141115;-77
2023/11/27 08:13:08;;;;;;;26.50;12.50;;;;;;;-1.70;100.00;99974.95;5092912;56;1139119;-73
2023/11/27 08:18:14;;;;;;;25.37;10.93;;;;;;;-1.74;100.00;99972.52;5037474;56;1141395;-75
2023/11/27 08:23:19;;;;;;;19.03;9.47;;;;;;;-1.72;100.00;99977.20;4989115;57;1141158;-73
2023/11/27 08:28:25;;;;;;;22.17;10.23;;;;;;;-1.75;100.00;99970.83;5011495;57;1139203;-77
2023/11/27 08:33:31;;;;;;;25.60;13.53;;;;;;;-1.77;100.00;99976.06;5064000;56;1141154;-72
2023/11/27 08:38:37;;;;;;;24.40;12.10;;;;;;;-1.75;100.00;99971.67;4999133;57;1141200;-76
2023/11/27 08:43:42;;;;;;;25.50;12.20;;;;;;;-1.75;100.00;99972.97;5074740;56;1140906;-71
2023/11/27 08:48:48;;;;;;;26.67;12.93;;;;;;;-1.71;100.00;99968.52;5105923;56;1141074;-75
2023/11/27 08:53:54;;;;;;;30.73;14.93;;;;;;;-1.70;100.00;99967.62;5071509;56;1141010;-73
2023/11/27 08:59:00;;;;;;;22.27;13.03;;;;;;;-1.68;100.00;99973.13;5055466;56;1141187;-73
2023/11/27 09:04:08;;;;;;;23.90;12.23;;;;;;;-1.71;100.00;99966.78;5078858;56;1141003;-74
2023/11/27 09:09:15;;;;;;;22.77;13.30;;;;;;;-1.65;100.00;99963.94;5071445;56;1251748;-79
2023/11/27 09:14:21;;;;;;;23.57;12.53;;;;;;;-1.65;100.00;99960.05;5070952;56;1140835;-74
2023/11/27 09:19:26;;;;;;;20.37;11.57;;;;;;;-1.56;100.00;99967.52;5095309;56;1141104;-73
2023/11/27 09:24:32;;;;;;;25.25;11.73;;;;;;;-1.49;100.00;99961.18;5047657;56;1141316;-71
2023/11/27 09:29:37;;;;;;;31.63;18.13;;;;;;;-1.42;100.00;99960.06;5027196;57;1141231;-74
2023/11/27 09:34:43;;;;;;;23.07;13.40;;;;;;;-1.33;100.00;99959.30;5040671;57;1140896;-71
2023/11/27 09:39:48;;;;;;;435.43;91.00;;;;;;;-1.27;100.00;99959.94;5061166;56;1140977;-76
2023/11/27 09:44:54;;;;;;;228.87;48.97;;;;;;;-1.23;100.00;99955.03;5083316;56;1142937;-71
2023/11/27 09:50:03;;;;;;;74.97;24.07;;;;;;;-1.16;100.00;99951.73;4965375;57;1142724;-73
2023/11/27 09:55:11;;;;;;;40.53;12.97;;;;;;;-1.09;100.00;99943.66;4980790;57;1140853;-76
2023/11/27 10:00:24;;;;;;;20.90;9.15;;;;;;;-1.02;100.00;99939.50;4972404;57;1141168;-72
2023/11/27 10:05:25;;;;;;;20.30;9.53;;;;;;;-1.00;100.00;99928.16;5064884;56;1139019;-75
2023/11/27 10:10:30;;;;;;;24.50;12.68;;;;;;;-0.97;100.00;99924.16;5030955;57;1139039;-73
2023/11/27 10:15:37;;;;;;;41.85;15.35;;;;;;;-0.88;100.00;99913.84;5043206;56;1140820;-74
2023/11/27 10:20:43;;;;;;;25.27;12.00;;;;;;;-0.78;100.00;99904.80;5045331;57;1140794;-77
2023/11/27 10:25:57;;;;;;;27.30;11.97;;;;;;;-0.69;100.00;99901.80;4887593;59;1141126;-72
2023/11/27 10:31:04;;;;;;;27.47;12.63;;;;;;;-0.64;100.00;99900.33;5015830;57;1140901;-73
2023/11/27 10:36:11;;;;;;;24.70;12.40;;;;;;;-0.58;100.00;99897.00;5056193;55;1141050;-70
2023/11/27 10:41:16;;;;;;;27.07;12.47;;;;;;;-0.55;100.00;99902.53;5132445;56;1141589;-72
2023/11/27 10:46:22;;;;;;;24.37;11.73;;;;;;;-0.52;100.00;99895.91;5123002;56;1140971;-74
2023/11/27 10:51:32;;;;;;;20.97;11.37;;;;;;;-0.43;100.00;99882.52;5074092;56;1179384;-72
2023/11/27 10:56:45;;;;;;;16.33;8.70;;;;;;;-0.39;100.00;99881.03;5081441;56;1141063;-72
2023/11/27 11:01:52;;;;;;;;;;;;;;;-0.35;100.00;99879.16;5074173;56;1138701;-73
2023/11/27 11:07:02;;;;;;;19.32;10.72;;;;;;;-0.29;100.00;99876.27;5167807;56;974304;-76
2023/11/27 11:12:09;;;;;;;19.63;10.23;;;;;;;-0.20;100.00;99869.84;5127520;56;1139122;-75
2023/11/27 11:17:19;;;;;;;27.97;12.30;;;;;;;-0.14;100.00;99862.61;5129543;56;1141101;-75
2023/11/27 11:22:41;;;;;;;22.13;9.40;;;;;;;-0.05;100.00;99847.92;5150200;56;1141554;-74
2023/11/27 11:28:05;;;;;;;15.77;9.23;;;;;;;0.12;100.00;99842.42;5130422;56;1139877;-71
2023/11/27 11:33:18;;;;;;;19.47;10.10;;;;;;;0.37;100.00;99839.52;5104047;56;1136459;-76
2023/11/27 11:38:21;;;;;;;24.30;12.15;;;;;;;0.58;100.00;99834.16;5087062;55;1138998;-74
2023/11/27 11:43:28;;;;;;;16.63;8.57;;;;;;;0.77;100.00;99831.95;5075452;56;1139174;-74
2023/11/27 11:48:39;;;;;;;50.15;26.48;;;;;;;1.07;100.00;99825.73;5056810;56;1137202;-74
2023/11/27 11:53:47;;;;;;;21.60;10.63;;;;;;;1.47;100.00;99824.55;5066689;56;1139116;-72
2023/11/27 11:58:57;;;;;;;16.50;7.37;;;;;;;2.27;100.00;99819.41;5082904;56;1138933;-74
2023/11/27 12:04:08;;;;;;;26.37;11.60;;;;;;;2.62;100.00;99813.52;5107186;56;1136890;-74
2023/11/27 12:09:13;;;;;;;16.07;8.70;;;;;;;2.72;100.00;99819.46;5119437;56;1138666;-72
2023/11/27 12:14:18;;;;;;;19.73;10.37;;;;;;;2.74;100.00;99820.22;5077618;56;1137052;-74
2023/11/27 12:19:25;;;;;;;22.07;12.03;;;;;;;2.94;100.00;99828.20;5067020;56;1139020;-74
2023/11/27 12:24:31;;;;;;;27.83;13.73;;;;;;;3.36;100.00;99820.94;5079794;56;1139021;-74
2023/11/27 12:29:38;;;;;;;29.00;14.73;;;;;;;4.17;100.00;99808.16;5075579;56;1138875;-73
2023/11/27 12:34:44;;;;;;;26.97;14.70;;;;;;;4.67;100.00;99806.27;5038807;56;1138892;-71
2023/11/27 12:39:57;;;;;;;25.30;14.30;;;;;;;5.21;100.00;99803.56;5064398;56;1138959;-72
2023/11/27 12:45:07;;;;;;;22.17;13.83;;;;;;;5.69;100.00;99803.80;5089600;56;1138672;-75
2023/11/27 12:50:22;;;;;;;26.10;15.07;;;;;;;5.71;100.00;99800.13;5058842;56;1138839;-73
2023/11/27 12:55:36;;;;;;;59.63;30.63;;;;;;;5.68;100.00;99787.70;5056619;56;1138747;-75
2023/11/27 13:00:43;;;;;;;15.68;10.00;;;;;;;5.81;100.00;99784.11;5089226;56;1138625;-74
2023/11/27 13:05:53;;;;;;;20.15;10.28;;;;;;;5.07;100.00;99788.76;5053257;56;1138669;-73
2023/11/27 13:11:04;;;;;;;18.80;10.90;;;;;;;4.01;100.00;99791.73;5062811;56;1172180;-76
2023/11/27 13:16:08;;;;;;;18.07;11.00;;;;;;;3.37;100.00;99793.03;5078782;56;1138853;-73
2023/11/27 13:21:15;;;;;;;16.07;10.30;;;;;;;3.00;100.00;99787.84;5103810;56;1138651;-75
2023/11/27 13:26:28;;;;;;;25.00;12.63;;;;;;;3.08;100.00;99782.53;5112126;56;1138696;-75
2023/11/27 13:31:44;;;;;;;18.34;10.22;;;;;;;3.61;100.00;99776.36;4948986;58;1243129;-73
2023/11/27 13:36:52;;;;;;;14.63;9.20;;;;;;;3.40;100.00;99769.33;4932160;58;1233705;-73
2023/11/27 13:41:56;;;;;;;22.87;12.83;;;;;;;2.98;100.00;99759.66;4921453;58;1136829;-76
2023/11/27 13:47:04;;;;;;;17.13;10.97;;;;;;;2.80;100.00;99753.27;4919159;58;1138844;-76
2023/11/27 13:52:10;;;;;;;18.60;10.83;;;;;;;2.45;100.00;99753.97;4940169;57;1138820;-76
2023/11/27 13:57:27;;;;;;;18.97;11.43;;;;;;;2.45;100.00;99753.97;5023178;56;1138786;-76
2023/11/27 14:02:27;;;;;;;53.30;18.40;;;;;;;2.14;100.00;99742.75;5052087;56;1138811;-76
2023/11/27 14:07:39;;;;;;;45.80;16.80;;;;;;;2.02;100.00;99726.83;5070603;56;1138938;-76
2023/11/27 14:12:43;;;;;;;39.77;19.90;;;;;;;1.92;100.00;99720.91;5051553;56;1138727;-76
2023/11/27 14:17:57;;;;;;;63.72;23.02;;;;;;;1.70;100.00;99718.62;5049611;56;1138665;-76
2023/11/27 14:28:19;;;;;;;29.03;15.13;;;;;;;1.53;100.00;99710.39;5041797;56;1245455;-76
2023/11/27 14:33:19;;;;;;;40.30;18.90;;;;;;;1.29;100.00;99706.50;5065795;56;1229674;-76
2023/11/27 14:38:27;;;;;;;39.33;20.23;;;;;;;1.02;100.00;99699.21;5117507;56;1246168;-77
2023/11/27 14:43:32;;;;;;;47.10;21.97;;;;;;;0.95;100.00;99692.62;5096960;56;1250898;-75
2023/11/27 14:48:40;;;;;;;69.93;31.43;;;;;;;1.04;100.00;99696.07;5122706;56;1257271;-76
2023/11/27 14:53:55;;;;;;;79.82;33.48;;;;;;;0.97;100.00;99689.48;5062166;56;1251728;-76
2023/11/27 14:58:56;;;;;;;86.50;37.07;;;;;;;0.97;100.00;99694.69;5008246;57;1248761;-75
2023/11/27 15:04:07;;;;;;;94.17;36.30;;;;;;;0.94;100.00;99692.70;5058176;56;1250878;-76
2023/11/27 15:09:28;;;;;;;119.97;43.10;;;;;;;0.83;100.00;99683.30;5043092;56;1247411;-76
2023/11/27 15:14:37;;;;;;;166.23;63.43;;;;;;;0.72;100.00;99681.26;5065097;56;1256702;-77
2023/11/27 15:19:43;;;;;;;311.63;123.33;;;;;;;0.65;100.00;99672.06;5067800;56;1140940;-76
2023/11/27 15:24:49;;;;;;;191.13;72.13;;;;;;;0.72;100.00;99663.50;5073987;56;1250590;-76
2023/11/27 15:29:55;;;;;;;151.75;62.08;;;;;;;0.73;100.00;99663.88;5093032;56;1192385;-76
2023/11/27 15:35:03;;;;;;;110.17;43.37;;;;;;;0.70;100.00;99661.81;5079527;56;1141264;-75
2023/11/27 15:40:14;;;;;;;136.43;53.73;;;;;;;0.63;100.00;99651.78;5053444;56;1141183;-76
2023/11/27 15:45:17;;;;;;;103.30;42.20;;;;;;;0.50;100.00;99645.06;5113445;56;1140708;-75
2023/11/27 15:50:29;;;;;;;145.03;57.03;;;;;;;0.45;100.00;99643.17;5138109;56;1140870;-76
2023/11/27 15:55:33;;;;;;;211.30;81.07;;;;;;;0.42;100.00;99643.77;5126691;56;1140917;-76
2023/11/27 16:00:38;;;;;;;386.03;134.67;;;;;;;0.46;100.00;99638.81;5071332;56;1140802;-76
2023/11/27 16:05:44;;;;;;;420.88;151.05;;;;;;;0.26;100.00;99630.69;5061424;56;1206021;-76
2023/11/27 16:10:49;;;;;;;520.42;168.70;;;;;;;0.22;100.00;99631.75;5057977;56;1194235;-76
2023/11/27 16:15:55;;;;;;;502.73;174.83;;;;;;;0.28;100.00;99629.70;5089903;56;1143181;-76
2023/11/27 16:21:01;;;;;;;470.27;167.93;;;;;;;0.38;100.00;99633.13;5050333;56;1143075;-76
2023/11/27 16:26:09;;;;;;;302.93;106.22;;;;;;;0.37;100.00;99624.48;4989589;57;1142859;-75
2023/11/27 16:31:14;;;;;;;220.47;87.80;;;;;;;0.13;100.00;99619.22;5116589;56;1226603;-76
2023/11/27 16:36:20;;;;;;;454.97;139.13;;;;;;;-0.08;100.00;99617.20;5060737;56;1140753;-75
2023/11/27 16:41:25;;;;;;;370.10;142.67;;;;;;;-0.07;100.00;99617.12;5041523;57;1145080;-75
2023/11/27 16:46:40;;;;;;;238.73;93.47;;;;;;;-0.05;100.00;99605.36;5122827;56;1145065;-75
2023/11/27 16:51:39;;;;;;;322.87;116.70;;;;;;;-0.11;100.00;99613.44;5124027;56;1142944;-75
2023/11/27 16:56:45;;;;;;;169.17;62.73;;;;;;;-0.01;100.00;99612.09;5095891;56;1145035;-74
2023/11/27 17:01:50;;;;;;;168.83;59.70;;;;;;;-0.02;100.00;99607.36;5042961;56;1142809;-74
2023/11/27 17:06:56;;;;;;;239.47;90.70;;;;;;;-0.03;100.00;99600.93;5060809;56;1142922;-75
2023/11/27 17:12:05;;;;;;;233.57;89.23;;;;;;;0.02;100.00;99597.63;4959151;57;1143084;-74
2023/11/27 17:17:11;;;;;;;114.90;49.50;;;;;;;0.12;100.00;99595.44;5042486;56;1140777;-73
2023/11/27 17:22:16;;;;;;;139.13;61.97;;;;;;;0.05;100.00;99584.94;4949962;58;1141036;-74
2023/11/27 17:27:22;;;;;;;173.07;78.27;;;;;;;0.09;100.00;99574.78;5054134;56;1140952;-74
2023/11/27 17:32:27;;;;;;;128.90;52.90;;;;;;;0.07;100.00;99569.66;5052682;56;1140921;-74
2023/11/27 17:37:33;;;;;;;131.47;54.60;;;;;;;-0.01;100.00;99564.86;5074321;56;1140957;-74
2023/11/27 17:42:44;;;;;;;185.83;72.43;;;;;;;-0.07;100.00;99568.20;5052550;57;1142897;-75
2023/11/27 17:47:51;;;;;;;525.90;221.47;;;;;;;-0.06;100.00;99558.19;5135226;56;1142937;-74
2023/11/27 17:52:57;;;;;;;211.33;93.63;;;;;;;-0.07;100.00;99555.21;5157337;56;1145047;-74
2023/11/27 17:58:04;;;;;;;128.00;53.33;;;;;;;-0.08;100.00;99543.13;5083529;56;1142959;-74
2023/11/27 18:03:10;;;;;;;156.20;65.40;;;;;;;-0.18;100.00;99521.97;5053981;56;1143172;-74
2023/11/27 18:08:15;;;;;;;136.10;54.63;;;;;;;-0.34;100.00;99528.83;5119772;56;1142949;-75
2023/11/27 18:13:21;;;;;;;132.53;48.83;;;;;;;-0.38;100.00;99529.43;5138659;56;1142710;-74
2023/11/27 18:18:27;;;;;;;137.93;46.33;;;;;;;-0.37;100.00;99523.33;5137951;56;1143022;-74
2023/11/27 18:23:33;;;;;;;152.10;53.80;;;;;;;-0.33;100.00;99524.48;5158745;56;1143054;-73
2023/11/27 18:28:38;;;;;;;142.77;50.40;;;;;;;-0.34;100.00;99527.53;5127453;56;1142786;-74
2023/11/27 18:33:44;;;;;;;123.47;41.10;;;;;;;-0.25;100.00;99526.23;5092391;56;1142853;-74
2023/11/27 18:38:50;;;;;;;110.50;38.03;;;;;;;-0.24;100.00;99514.92;5041875;57;1150636;-74
2023/11/27 18:43:58;;;;;;;103.95;37.00;;;;;;;-0.22;100.00;99509.19;5078891;56;1143105;-74
2023/11/27 18:49:03;;;;;;;174.73;61.27;;;;;;;-0.18;100.00;99504.23;4959164;58;1143014;-74
2023/11/27 18:54:08;;;;;;;228.53;77.47;;;;;;;-0.09;100.00;99506.36;5125026;56;1143312;-73
2023/11/27 18:59:14;;;;;;;202.20;73.13;;;;;;;-0.03;100.00;99500.87;5146386;56;1142659;-75
2023/11/27 19:04:20;;;;;;;180.93;67.53;;;;;;;0.00;100.00;99492.43;5082567;56;1143098;-75
2023/11/27 19:09:26;;;;;;;165.97;59.77;;;;;;;-0.03;100.00;99479.62;5041609;57;1140727;-76
2023/11/27 19:14:32;;;;;;;108.80;41.37;;;;;;;-0.14;100.00;99475.86;5088000;56;1142852;-75
2023/11/27 19:19:37;;;;;;;105.20;42.30;;;;;;;-0.23;100.00;99476.33;5126242;56;1142977;-76
2023/11/27 19:24:45;;;;;;;100.67;39.03;;;;;;;-0.34;100.00;99467.78;5126147;56;1143076;-74
2023/11/27 19:29:50;;;;;;;85.97;32.05;;;;;;;-0.49;100.00;99467.25;5133962;56;1142883;-75
2023/11/27 19:34:56;;;;;;;80.04;34.54;;;;;;;-0.52;100.00;99470.83;5144649;56;1140850;-75
2023/11/27 19:40:01;;;;;;;76.35;30.75;;;;;;;-0.52;100.00;99457.84;5135079;56;1140944;-75
2023/11/27 19:45:08;;;;;;;61.98;26.75;;;;;;;-0.57;100.00;99457.22;5133109;55;1140820;-75
2023/11/27 19:50:13;;;;;;;62.03;23.70;;;;;;;-0.72;100.00;99454.08;5152455;56;1140763;-75
2023/11/27 19:55:19;;;;;;;210.07;76.10;;;;;;;-0.77;100.00;99455.61;5129309;56;1140899;-76
2023/11/27 20:00:26;;;;;;;217.63;74.80;;;;;;;-0.77;100.00;99449.58;5065064;56;1142944;-78
2023/11/27 20:05:32;;;;;;;232.93;81.53;;;;;;;-0.83;100.00;99447.27;5074180;56;1143068;-75
2023/11/27 20:10:38;;;;;;;166.83;60.67;;;;;;;-0.82;100.00;99447.66;5137042;56;1142793;-76
2023/11/27 20:15:43;;;;;;;287.40;102.10;;;;;;;-0.96;100.00;99439.69;5089284;56;1142918;-78
2023/11/27 20:20:49;;;;;;;278.30;98.27;;;;;;;-1.01;100.00;99436.01;5127870;55;1145042;-78
2023/11/27 20:25:55;;;;;;;149.57;59.15;;;;;;;-1.12;100.00;99429.20;5158556;55;1142951;-79
2023/11/27 20:31:00;;;;;;;80.30;36.17;;;;;;;-1.20;100.00;99423.06;5181945;55;1143031;-76
2023/11/27 20:36:07;;;;;;;123.02;42.73;;;;;;;-1.20;100.00;99417.03;5152302;55;1140753;-75
2023/11/27 20:41:13;;;;;;;420.57;125.83;;;;;;;-1.12;100.00;99412.34;5159975;56;1142569;-75
2023/11/27 20:46:19;;;;;;;502.60;164.57;;;;;;;-1.26;100.00;99406.51;5145034;55;1144843;-77
2023/11/27 20:51:25;;;;;;;359.90;114.57;;;;;;;-1.35;100.00;99401.73;5172052;55;1144973;-75
2023/11/27 20:56:30;;;;;;;332.25;101.05;;;;;;;-1.28;100.00;99405.73;5191528;55;1144841;-75
2023/11/27 21:01:36;;;;;;;284.80;87.13;;;;;;;-1.20;100.00;99404.06;5182875;55;1144934;-77
2023/11/27 21:06:42;;;;;;;294.03;89.10;;;;;;;-1.17;100.00;99394.84;5163716;55;1143064;-78
2023/11/27 21:11:48;;;;;;;332.20;103.27;;;;;;;-1.23;100.00;99394.70;5143000;55;1142615;-75
2023/11/27 21:16:53;;;;;;;358.70;115.53;;;;;;;-1.27;100.00;99397.05;5136866;56;1145144;-78
2023/11/27 21:21:59;;;;;;;331.10;109.50;;;;;;;-1.54;100.00;99394.00;5159588;55;1144975;-77
2023/11/27 21:27:09;;;;;;;197.30;67.62;;;;;;;-1.63;100.00;99390.52;5142947;56;1144715;-77
2023/11/27 21:32:13;;;;;;;160.80;60.03;;;;;;;-1.57;100.00;99385.06;5146210;56;1142901;-75
2023/11/27 21:37:19;;;;;;;194.13;65.12;;;;;;;-1.49;100.00;99375.16;5114590;55;1142894;-75
2023/11/27 21:42:25;;;;;;;250.53;77.13;;;;;;;-1.44;100.00;99360.69;5061911;56;1142909;-75
2023/11/27 21:47:31;;;;;;;230.43;80.00;;;;;;;-1.54;100.00;99357.70;5137970;55;1143292;-75
2023/11/27 21:52:37;;;;;;;224.93;77.60;;;;;;;-1.65;100.00;99346.97;5130264;56;1143010;-76
2023/11/27 21:57:42;;;;;;;183.10;66.02;;;;;;;-1.65;100.00;99339.64;5126428;56;1142879;-76
2023/11/27 22:02:48;;;;;;;119.75;43.68;;;;;;;-1.85;100.00;99329.77;5119934;55;1142887;-77
2023/11/27 22:07:54;;;;;;;101.58;39.05;;;;;;;-1.98;100.00;99323.89;5146853;55;1142851;-75
2023/11/27 22:12:59;;;;;;;89.03;35.60;;;;;;;-2.07;100.00;99325.17;5126466;55;1142865;-76
2023/11/27 22:18:05;;;;;;;86.53;35.73;;;;;;;-2.11;100.00;99317.14;5125552;56;1140832;-75
2023/11/27 22:23:10;;;;;;;77.53;32.40;;;;;;;-2.10;100.00;99312.34;5145716;56;1140864;-74
2023/11/27 22:28:16;;;;;;;81.33;31.93;;;;;;;-2.10;100.00;99311.05;5125417;56;1140843;-76
2023/11/27 22:33:22;;;;;;;82.37;34.13;;;;;;;-2.11;100.00;99306.78;5097701;56;1140910;-76
2023/11/27 22:38:27;;;;;;;98.57;41.50;;;;;;;-2.16;100.00;99308.30;5061830;57;1140767;-77
2023/11/27 22:43:33;;;;;;;101.03;39.40;;;;;;;-2.10;100.00;99305.88;5103621;56;1140638;-75
2023/11/27 22:48:39;;;;;;;107.93;44.90;;;;;;;-2.08;100.00;99296.28;5124223;56;1142718;-75